Plymouth Light

42° 00' 12"N, 70° 36' 04"W, Elevation 54 ft.
Eastern Time

Hourly observations for the last 72 hours

Date Time Temperature (°F) Humi-
dity

(%)
Wind
(mph)
Pressure Rain (in) Sun
(W/m2)
ET
(in)
Air Dew 6 Hour 1 Hr 3 Hr 6 Hr Day
Alt
(in)
Sea
Level

(mb)
Max Min
16 16:00 37.7 36.9 97 S 19 G 27 29.19 988.4 0.00 186 0.003
16 15:00 38.2 37.4 97 SW 23 G 31 29.16 987.5 0.01 0.00 132 0.000
16 14:00 40.4 39.6 44.8 40.4 97 WSW 14 G 27 29.15 987.0 0.03 0.35 1.04 1.72 211 0.043
16 13:00 44.4 43.9 98 NNE 9 G 19 29.16 987.6 0.08 1.69 65 0.041
16 12:00 44.5 44.0 98 NE 20 G 25 29.21 989.1 0.24 1.61 185 0.037
16 11:00 41.6 41.1 98 N 25 G 34 29.28 991.6 0.38 0.69 1.37 163 0.034
16 10:00 41.1 40.3 97 N 22 G 31 29.36 994.2 0.17 0.99 139 0.032
16 09:00 41.2 40.1 96 NNE 28 G 38 29.40 995.7 0.14 0.82 90 0.030
16 08:00 41.9 40.8 43.6 41.7 96 NE 24 G 37 29.41 996.0 0.13 0.34 0.53 0.68 30 0.029
16 07:00 42.5 41.4 96 NE 26 G 37 29.45 997.4 0.10 0.55 7 0.028
16 06:00 42.8 41.7 96 ENE 26 G 34 29.49 998.6 0.11 0.45 0 0.027
16 05:00 43.2 42.1 96 NE 21 G 27 29.53 1000.0 0.04 0.19 0.34 0 0.026
16 04:00 43.2 41.6 94 ENE 16 G 22 29.56 1001.0 0.02 0.30 0 0.025
16 03:00 43.1 40.9 92 E 24 G 27 29.59 1002.2 0.13 0.28 0 0.024
16 02:00 43.1 41.2 44.3 42.5 93 ENE 12 G 24 29.63 1003.3 0.10 0.11 0.15 0.15 0 0.023
16 01:00 43.8 40.8 89 E 16 G 22 29.64 1003.7 0.01 0.05 0 0.022
16 00:00 43.7 39.2 84 E 23 G 27 29.64 1003.7 0.04 0 0.020
15 23:00 43.6 39.1 84 E 17 G 24 29.67 1004.8 0.01 0.04 0.04 0 0.018
15 22:00 43.2 39.6 87 E 14 G 20 29.70 1005.8 0.03 0.03 0 0.017
15 21:00 43.4 39.2 85 E 14 G 19 29.72 1006.4 0.00 0 0.016
15 20:00 44.2 39.4 45.4 44.2 83 ESE 13 G 19 29.74 1007.0 0.00 0 0.015
15 19:00 44.4 39.9 84 ESE 13 G 23 29.73 1006.7 0.00 7 0.013
15 18:00 45.0 39.8 82 ESE 9 G 17 29.74 1007.1 0.00 84 0.011
15 17:00 45.4 39.3 79 ESE 15 G 21 29.75 1007.5 0.00 146 0.008
15 16:00 44.9 41.0 86 ESE 12 G 18 29.77 1008.1 0.00 214 0.004
15 15:00 45.1 40.9 85 ESE 15 G 23 29.77 1008.2 0.00 244 0.000
15 14:00 45.2 41.3 47.0 45.1 86 ESE 15 G 20 29.79 1008.8 0.00 216 0.073
15 13:00 45.4 40.9 84 ESE 16 G 21 29.81 1009.4 0.00 239 0.067
15 12:00 46.6 41.4 82 SSE 10 G 15 29.83 1010.2 0.00 332 0.061
15 11:00 46.6 40.1 78 ESE 13 G 18 29.83 1010.1 0.00 202 0.055
15 10:00 46.1 42.1 86 SE 8 G 15 29.84 1010.6 0.00 171 0.050
15 09:00 45.9 42.3 87 SSE 9 G 14 29.85 1010.7 0.00 211 0.046
15 08:00 45.7 42.6 46.2 43.5 89 SSE 7 G 13 29.85 1010.7 0.00 193 0.042
15 07:00 45.3 42.3 89 SSE 9 G 13 29.85 1010.9 0.00 141 0.038
15 06:00 44.0 40.1 86 S 6 G 11 29.86 1011.1 0.00 5 0.037
15 05:00 43.7 40.1 87 SSW 5 G 9 29.86 1011.3 0.00 0 0.036
15 04:00 43.6 40.0 87 S 8 G 10 29.88 1011.8 0.00 0 0.035
15 03:00 44.0 40.7 88 S 8 G 10 29.89 1012.1 0.00 0 0.034
15 02:00 44.0 41.3 45.1 43.1 90 S 11 G 13 29.89 1012.3 0.00 0 0.033
15 01:00 43.1 40.9 92 SSW 6 G 9 29.91 1012.7 0.00 0 0.033
15 00:00 44.6 42.4 92 S 11 G 15 29.91 1013.0 0.01 0 0.033
14 23:00 44.3 41.8 91 S 9 G 14 29.92 1013.3 0.00 0 0.032
14 22:00 44.2 41.5 90 SSE 10 G 15 29.94 1013.8 0.00 0 0.031
14 21:00 44.9 41.6 88 S 9 G 13 29.94 1013.9 0.00 0 0.030
14 20:00 44.9 41.6 45.6 44.5 88 S 10 G 16 29.94 1013.9 0.00 0 0.029
14 19:00 44.9 40.7 85 SSE 5 G 12 29.93 1013.7 0.00 21 0.028
14 18:00 45.1 40.6 84 SE 7 G 12 29.95 1014.3 0.00 178 0.026
14 17:00 45.2 39.7 81 ESE 8 G 11 29.96 1014.5 0.00 373 0.020
14 16:00 44.9 39.7 82 E 6 G 9 29.97 1015.1 0.00 545 0.011
14 15:00 44.8 40.0 83 E 9 G 10 29.98 1015.2 0.00 686 0.000
14 14:00 44.8 39.6 47.0 44.7 82 E 6 G 8 30.01 1016.2 0.01 786 0.101
14 13:00 45.1 40.3 83 E 5 G 7 30.02 1016.7 0.01 833 0.087
14 12:00 46.2 41.0 82 ENE 8 G 11 30.03 1017.1 0.01 828 0.072
14 11:00 46.5 41.6 83 ENE 7 G 9 30.05 1017.8 0.01 768 0.058
14 10:00 45.6 42.0 87 NE 6 G 9 30.07 1018.2 0.01 425 0.046
14 09:00 45.7 42.9 90 NE 4 G 6 30.06 1018.1 0.01 492 0.038
14 08:00 45.0 43.1 45.0 43.2 93 NE 2 G 4 30.06 1018.0 0.01 0.01 311 0.031
14 07:00 43.4 41.8 94 NNE 4 G 5 30.06 1017.9 0.01 58 0.029
14 06:00 43.5 41.6 93 NNW 2 G 3 30.05 1017.5 0.01 0 0.029
14 05:00 43.4 41.5 93 WNW 0 G 3 30.04 1017.2 0.01 0.01 0.01 0 0.029
14 04:00 43.9 41.7 92 WNW 5 G 7 30.03 1017.0 0.00 0 0.029
14 03:00 43.9 41.7 92 Calm 30.03 1016.8 0.00 0 0.029
14 02:00 44.4 41.7 47.0 44.0 90 SE 0 G 2 30.04 1017.3 0.00 0 0.029
14 01:00 44.6 41.6 89 SE 3 G 5 30.03 1016.9 0.00 0 0.029
14 00:00 45.3 41.7 87 SE 2 G 6 30.03 1016.9 0.00 0 0.029
13 23:00 45.3 42.0 88 SSW 0 G 3 30.03 1016.9 0.00 0 0.029
13 22:00 45.4 41.8 87 SE 3 G 7 30.02 1016.6 0.00 0 0.029
13 21:00 46.5 41.9 84 E 5 G 9 30.03 1016.9 0.00 0 0.029
13 20:00 47.0 42.1 49.5 46.8 83 NE 2 G 3 30.00 1015.9 0.00 0 0.029
13 19:00 48.5 42.6 80 NE 1 G 3 29.99 1015.6 0.00 16 0.029
13 18:00 49.0 43.4 81 NE 3 G 5 30.00 1015.8 0.00 181 0.027
13 17:00 48.7 44.1 84 NNE 5 G 8 29.99 1015.6 0.00 378 0.021

Data generated by WxSolution Version 1.9.1.1, Build 2017.11.27.